createdAt,value
2023-05-19T03:57:18.930Z,101149.97
2023-05-19T04:00:22.922Z,101149.97
2023-05-19T04:03:26.703Z,101155.72
2023-05-19T04:06:28.954Z,101160.03
2023-05-19T04:09:35.409Z,101163.75
2023-05-19T04:12:37.540Z,101163.41
2023-05-19T04:15:40.986Z,101172.81
2023-05-19T04:18:46.173Z,101169.59
2023-05-19T04:21:48.758Z,101179.81
2023-05-19T04:24:52.278Z,101176.22
2023-05-19T04:27:57.684Z,101175.13
2023-05-19T04:31:00.336Z,101170.47
2023-05-19T04:34:02.890Z,101177.22
2023-05-19T04:37:07.049Z,101169.88
2023-05-19T04:40:11.129Z,101180.66
2023-05-19T04:43:13.500Z,101184.53
2023-05-19T04:46:16.218Z,101184.75
2023-05-19T04:49:19.391Z,101183.78
2023-05-19T04:52:22.528Z,101188.91
2023-05-19T04:55:26.046Z,101191.59
2023-05-19T04:58:28.561Z,101196.66
2023-05-19T05:01:32.912Z,101191.59
2023-05-19T05:04:36.227Z,101193.75
2023-05-19T05:07:39.314Z,101185.91
2023-05-19T05:10:42.230Z,101205.53
2023-05-19T05:13:44.781Z,101205.56
2023-05-19T05:16:47.861Z,101210.03
2023-05-19T05:19:51.291Z,101193.97
2023-05-19T05:22:54.103Z,101205.00
2023-05-19T05:25:56.804Z,101208.25
2023-05-19T05:28:59.467Z,101213.75
2023-05-19T05:32:01.948Z,101222.16
2023-05-19T05:35:05.183Z,101211.12
2023-05-19T05:38:08.118Z,101212.56
2023-05-19T05:41:11.373Z,101203.06
2023-05-19T05:44:13.764Z,101213.78
2023-05-19T05:47:16.865Z,101212.22
2023-05-19T05:50:20.342Z,101206.72
2023-05-19T05:53:25.140Z,101205.41
2023-05-19T05:56:28.609Z,101206.72
2023-05-19T05:59:31.108Z,101213.09
2023-05-19T06:02:33.372Z,101211.00
2023-05-19T06:05:36.166Z,101211.12
2023-05-19T06:08:38.491Z,101214.69
2023-05-19T06:11:41.512Z,101208.91
2023-05-19T06:14:44.908Z,101220.16
2023-05-19T06:17:48.568Z,101221.13
2023-05-19T06:20:50.959Z,101217.63
2023-05-19T06:23:53.541Z,101215.81
2023-05-19T06:26:55.802Z,101227.31
2023-05-19T06:29:58.427Z,101231.50
2023-05-19T06:33:00.858Z,101224.97
2023-05-19T06:36:03.648Z,101236.16
2023-05-19T06:39:06.374Z,101237.00
2023-05-19T06:42:08.905Z,101251.78
2023-05-19T06:45:15.114Z,101246.00
2023-05-19T06:48:17.765Z,101244.50
2023-05-19T06:51:21.789Z,101247.63
2023-05-19T06:54:25.493Z,101249.66
2023-05-19T06:57:27.891Z,101252.06
2023-05-19T07:00:32.398Z,101251.13
2023-05-19T07:03:36.316Z,101262.34
2023-05-19T07:06:39.342Z,101257.06
2023-05-19T07:09:41.732Z,101253.25
2023-05-19T07:12:44.310Z,101251.69
2023-05-19T07:15:49.035Z,101253.94
2023-05-19T07:18:52.285Z,101253.41
2023-05-19T07:21:55.467Z,101258.72
2023-05-19T07:24:58.107Z,101247.31
2023-05-19T07:28:00.610Z,101236.16
2023-05-19T07:31:03.064Z,101235.06
2023-05-19T07:34:05.503Z,101229.50
2023-05-19T07:37:08.251Z,101233.81
2023-05-19T07:40:11.775Z,101234.03
2023-05-19T07:43:14.738Z,101228.31
2023-05-19T07:46:17.109Z,101231.72
2023-05-19T07:49:19.622Z,101227.41
2023-05-19T07:52:22.101Z,101229.50
2023-05-19T07:55:24.684Z,101225.72
2023-05-19T07:58:26.930Z,101223.56
2023-05-19T08:01:30.346Z,101221.56
2023-05-19T08:04:32.933Z,101218.78
2023-05-19T08:07:35.335Z,101228.00
2023-05-19T08:10:37.860Z,101221.59
2023-05-19T08:13:40.066Z,101218.09
2023-05-19T08:16:43.857Z,101207.59
2023-05-19T08:19:46.339Z,101199.97
2023-05-19T08:22:48.933Z,101206.94
2023-05-19T08:25:51.250Z,101213.69
2023-05-19T08:28:53.876Z,101210.69
2023-05-19T08:31:56.241Z,101203.50
2023-05-19T08:34:58.692Z,101202.19
2023-05-19T08:38:01.029Z,101199.19
2023-05-19T08:41:03.839Z,101196.37
2023-05-19T08:44:06.163Z,101206.63
2023-05-19T08:47:13.313Z,101205.31
2023-05-19T08:50:30.714Z,101206.50
2023-05-19T08:53:37.850Z,101203.16
2023-05-19T08:56:40.370Z,101205.00
2023-05-19T08:59:43.897Z,101197.75
2023-05-19T09:02:59.812Z,101194.72
2023-05-19T09:06:08.965Z,101195.75
2023-05-19T09:09:23.169Z,101194.31
2023-05-19T09:12:26.860Z,101196.72
2023-05-19T09:15:29.040Z,101196.84
2023-05-19T09:18:31.825Z,101200.44
2023-05-19T09:21:34.024Z,101199.19
2023-05-19T09:24:37.861Z,101200.56
2023-05-19T09:27:40.000Z,101202.81
2023-05-19T09:30:42.460Z,101200.56
2023-05-19T09:33:46.055Z,101198.63
2023-05-19T09:36:53.494Z,101195.44
2023-05-19T09:39:56.546Z,101186.97
2023-05-19T09:42:58.963Z,101191.09
2023-05-19T09:46:04.071Z,101193.53
2023-05-19T09:49:09.800Z,101187.94
2023-05-19T09:52:16.276Z,101181.38
2023-05-19T09:55:23.004Z,101186.19
2023-05-19T09:58:26.325Z,101181.25
2023-05-19T10:01:32.849Z,101178.06
2023-05-19T10:04:36.265Z,101169.81
2023-05-19T10:07:40.407Z,101168.41
2023-05-19T10:10:45.450Z,101161.06
2023-05-19T10:13:50.936Z,101156.13
2023-05-19T10:16:55.375Z,101153.28
2023-05-19T10:19:59.326Z,101157.44
2023-05-19T10:23:03.054Z,101156.94
2023-05-19T10:26:06.872Z,101157.59
2023-05-19T10:29:10.627Z,101158.87
2023-05-19T10:32:22.674Z,101158.56
2023-05-19T10:35:27.905Z,101153.75
2023-05-19T10:38:48.217Z,101151.84
2023-05-19T10:42:13.165Z,101142.91
2023-05-19T10:45:21.432Z,101145.75
2023-05-19T10:48:24.322Z,101140.97
2023-05-19T10:51:33.987Z,101137.00
2023-05-19T10:54:48.114Z,101140.19
2023-05-19T10:58:00.379Z,101137.63
2023-05-19T11:01:02.959Z,101136.50
2023-05-19T11:04:13.852Z,101127.03
2023-05-19T11:07:21.690Z,101120.66
2023-05-19T11:10:24.657Z,101120.66
2023-05-19T11:13:28.428Z,101119.19
2023-05-19T11:16:34.896Z,101115.22
2023-05-19T11:19:37.643Z,101114.56
2023-05-19T11:22:40.010Z,101114.38
2023-05-19T11:25:47.603Z,101110.69
2023-05-19T11:28:50.176Z,101115.31
2023-05-19T11:31:52.812Z,101114.50
2023-05-19T11:34:56.138Z,101118.66
2023-05-19T11:37:59.386Z,101114.16
2023-05-19T11:41:03.192Z,101106.78
2023-05-19T11:44:10.050Z,101096.91
2023-05-19T11:47:13.681Z,101102.97
2023-05-19T11:50:16.575Z,101105.50
2023-05-19T11:53:21.560Z,101103.31
2023-05-19T11:56:24.044Z,101104.94
2023-05-19T11:59:34.946Z,101109.13
2023-05-19T12:02:38.461Z,101098.09
2023-05-19T12:05:46.759Z,101101.47
2023-05-19T12:08:52.028Z,101091.37
2023-05-19T12:11:55.163Z,101086.03
2023-05-19T12:14:57.360Z,101080.84
2023-05-19T12:18:03.214Z,101092.47
2023-05-19T12:21:05.828Z,101081.06
2023-05-19T12:24:08.892Z,101076.09
2023-05-19T12:27:14.924Z,101077.87
2023-05-19T12:30:17.374Z,101071.34
2023-05-19T12:33:19.765Z,101066.19
2023-05-19T12:36:25.170Z,101066.59
2023-05-19T12:39:27.449Z,101047.75
2023-05-19T12:42:34.982Z,101043.09
2023-05-19T12:45:38.537Z,101040.81
2023-05-19T12:48:45.556Z,101048.16
2023-05-19T12:51:54.395Z,101044.06
2023-05-19T12:55:07.661Z,101038.91
2023-05-19T12:58:13.462Z,101031.88
2023-05-19T13:01:17.911Z,101043.09
2023-05-19T13:04:20.228Z,101035.50
2023-05-19T13:07:22.736Z,101041.91
2023-05-19T13:10:29.338Z,101040.37
2023-05-19T13:13:32.331Z,101032.88
2023-05-19T13:16:34.479Z,101022.78
2023-05-19T13:19:36.998Z,101015.88
2023-05-19T13:22:39.232Z,101016.78
2023-05-19T13:25:42.300Z,101016.50
2023-05-19T13:28:44.655Z,101021.56
2023-05-19T13:31:47.063Z,101020.75
2023-05-19T13:34:49.290Z,101006.28
2023-05-19T13:37:51.771Z,101009.25
2023-05-19T13:40:54.644Z,100999.97
2023-05-19T13:44:01.150Z,100994.28
2023-05-19T13:47:03.335Z,100995.41
2023-05-19T13:50:06.472Z,101001.62
2023-05-19T13:53:08.807Z,100993.03
2023-05-19T13:56:11.395Z,100992.91
2023-05-19T13:59:13.585Z,100997.03
2023-05-19T14:02:16.232Z,100994.72
2023-05-19T14:05:18.708Z,100988.25
2023-05-19T14:08:20.943Z,100985.53
2023-05-19T14:11:23.447Z,100983.28
2023-05-19T14:14:25.817Z,100981.88
2023-05-19T14:17:28.597Z,100977.53
2023-05-19T14:20:31.377Z,100974.25
2023-05-19T14:23:34.316Z,100974.66
2023-05-19T14:26:36.575Z,100979.69
2023-05-19T14:29:39.281Z,100975.63
2023-05-19T14:32:41.581Z,100974.16
2023-05-19T14:35:44.066Z,100979.03
2023-05-19T14:38:46.390Z,100979.63
2023-05-19T14:41:50.942Z,100974.00
2023-05-19T14:44:53.160Z,100974.91
2023-05-19T14:47:55.854Z,100978.72
2023-05-19T14:50:58.057Z,100962.84
2023-05-19T14:54:02.085Z,100974.47
2023-05-19T14:57:04.551Z,100973.66
2023-05-19T15:00:10.054Z,100970.59
2023-05-19T15:03:12.272Z,100971.50
2023-05-19T15:06:14.781Z,100962.37
2023-05-19T15:09:16.952Z,100968.97
2023-05-19T15:12:19.493Z,100962.25
2023-05-19T15:15:21.706Z,100971.56
2023-05-19T15:18:24.210Z,100962.25
2023-05-19T15:21:26.422Z,100960.66
2023-05-19T15:24:28.859Z,100963.19
